sensor_id;sensor_type;location;lat;lon;timestamp;P1;durP1;ratioP1;P2;durP2;ratioP2
57969;SDS011;43777;42.656;23.264;2022-09-09T00:00:16;14.93;;;13.45;;
57969;SDS011;43777;42.656;23.264;2022-09-09T00:02:45;15.82;;;14.13;;
57969;SDS011;43777;42.656;23.264;2022-09-09T00:05:24;28.00;;;18.40;;
57969;SDS011;43777;42.656;23.264;2022-09-09T00:07:54;15.82;;;14.25;;
57969;SDS011;43777;42.656;23.264;2022-09-09T00:20:54;18.38;;;14.65;;
57969;SDS011;43777;42.656;23.264;2022-09-09T00:23:27;16.30;;;13.88;;
57969;SDS011;43777;42.656;23.264;2022-09-09T00:28:23;15.60;;;14.13;;
57969;SDS011;43777;42.656;23.264;2022-09-09T00:30:50;15.85;;;14.15;;
57969;SDS011;43777;42.656;23.264;2022-09-09T00:33:17;16.52;;;13.63;;
57969;SDS011;43777;42.656;23.264;2022-09-09T00:35:54;15.75;;;13.48;;
57969;SDS011;43777;42.656;23.264;2022-09-09T00:43:36;14.93;;;13.32;;
57969;SDS011;43777;42.656;23.264;2022-09-09T00:51:14;13.30;;;12.02;;
57969;SDS011;43777;42.656;23.264;2022-09-09T00:53:55;15.43;;;12.63;;
57969;SDS011;43777;42.656;23.264;2022-09-09T00:56:25;14.05;;;12.73;;
57969;SDS011;43777;42.656;23.264;2022-09-09T00:58:55;13.45;;;12.15;;
57969;SDS011;43777;42.656;23.264;2022-09-09T01:01:24;13.77;;;12.48;;
57969;SDS011;43777;42.656;23.264;2022-09-09T01:03:52;13.27;;;11.98;;
57969;SDS011;43777;42.656;23.264;2022-09-09T01:14:05;14.55;;;13.10;;
57969;SDS011;43777;42.656;23.264;2022-09-09T01:16:36;19.95;;;13.82;;
57969;SDS011;43777;42.656;23.264;2022-09-09T01:19:02;17.17;;;14.65;;
57969;SDS011;43777;42.656;23.264;2022-09-09T01:21:39;19.70;;;14.82;;
57969;SDS011;43777;42.656;23.264;2022-09-09T01:26:44;13.68;;;12.32;;
57969;SDS011;43777;42.656;23.264;2022-09-09T01:29:15;13.82;;;12.52;;
57969;SDS011;43777;42.656;23.264;2022-09-09T01:31:42;14.15;;;12.68;;
57969;SDS011;43777;42.656;23.264;2022-09-09T01:34:17;15.05;;;12.23;;
57969;SDS011;43777;42.656;23.264;2022-09-09T01:37:25;14.15;;;12.85;;
57969;SDS011;43777;42.656;23.264;2022-09-09T01:39:36;13.80;;;11.85;;
57969;SDS011;43777;42.656;23.264;2022-09-09T01:42:03;17.60;;;12.73;;
57969;SDS011;43777;42.656;23.264;2022-09-09T01:44:30;14.20;;;11.55;;
57969;SDS011;43777;42.656;23.264;2022-09-09T01:46:56;14.77;;;13.27;;
57969;SDS011;43777;42.656;23.264;2022-09-09T01:49:22;18.27;;;12.02;;
57969;SDS011;43777;42.656;23.264;2022-09-09T01:51:52;15.45;;;12.18;;
57969;SDS011;43777;42.656;23.264;2022-09-09T01:54:19;16.33;;;13.00;;
57969;SDS011;43777;42.656;23.264;2022-09-09T02:02:10;14.32;;;12.60;;
57969;SDS011;43777;42.656;23.264;2022-09-09T02:07:52;12.90;;;11.63;;
57969;SDS011;43777;42.656;23.264;2022-09-09T02:09:57;14.77;;;13.23;;
57969;SDS011;43777;42.656;23.264;2022-09-09T02:12:24;16.13;;;12.05;;
57969;SDS011;43777;42.656;23.264;2022-09-09T02:14:58;15.80;;;13.82;;
57969;SDS011;43777;42.656;23.264;2022-09-09T02:17:27;15.40;;;13.93;;
57969;SDS011;43777;42.656;23.264;2022-09-09T02:20:05;15.75;;;13.75;;
57969;SDS011;43777;42.656;23.264;2022-09-09T02:22:32;14.63;;;13.13;;
57969;SDS011;43777;42.656;23.264;2022-09-09T02:24:59;14.20;;;12.93;;
57969;SDS011;43777;42.656;23.264;2022-09-09T02:27:26;14.50;;;13.10;;
57969;SDS011;43777;42.656;23.264;2022-09-09T02:29:52;13.73;;;12.23;;
57969;SDS011;43777;42.656;23.264;2022-09-09T02:32:20;13.23;;;11.93;;
57969;SDS011;43777;42.656;23.264;2022-09-09T02:34:48;14.77;;;13.25;;
57969;SDS011;43777;42.656;23.264;2022-09-09T02:37:17;14.75;;;13.27;;
57969;SDS011;43777;42.656;23.264;2022-09-09T02:39:44;13.88;;;12.57;;
57969;SDS011;43777;42.656;23.264;2022-09-09T02:42:10;14.75;;;13.32;;
57969;SDS011;43777;42.656;23.264;2022-09-09T02:44:36;14.80;;;13.32;;
57969;SDS011;43777;42.656;23.264;2022-09-09T02:52:01;16.00;;;14.23;;
57969;SDS011;43777;42.656;23.264;2022-09-09T02:54:28;15.32;;;13.77;;
57969;SDS011;43777;42.656;23.264;2022-09-09T02:56:55;16.10;;;14.50;;
57969;SDS011;43777;42.656;23.264;2022-09-09T02:59:24;15.73;;;14.13;;
57969;SDS011;43777;42.656;23.264;2022-09-09T03:01:50;17.13;;;13.75;;
57969;SDS011;43777;42.656;23.264;2022-09-09T03:04:18;14.77;;;13.38;;
57969;SDS011;43777;42.656;23.264;2022-09-09T03:06:44;15.00;;;13.50;;
57969;SDS011;43777;42.656;23.264;2022-09-09T03:09:10;15.20;;;13.55;;
57969;SDS011;43777;42.656;23.264;2022-09-09T03:11:36;15.63;;;14.10;;
57969;SDS011;43777;42.656;23.264;2022-09-09T03:14:03;16.48;;;14.82;;
57969;SDS011;43777;42.656;23.264;2022-09-09T03:16:29;16.55;;;14.60;;
57969;SDS011;43777;42.656;23.264;2022-09-09T03:18:55;18.58;;;14.57;;
57969;SDS011;43777;42.656;23.264;2022-09-09T03:21:21;16.20;;;13.60;;
57969;SDS011;43777;42.656;23.264;2022-09-09T03:23:47;16.08;;;13.60;;
57969;SDS011;43777;42.656;23.264;2022-09-09T03:26:13;16.75;;;13.43;;
57969;SDS011;43777;42.656;23.264;2022-09-09T03:28:40;15.25;;;13.80;;
57969;SDS011;43777;42.656;23.264;2022-09-09T03:31:06;15.68;;;14.13;;
57969;SDS011;43777;42.656;23.264;2022-09-09T03:33:35;14.82;;;13.25;;
57969;SDS011;43777;42.656;23.264;2022-09-09T03:36:02;15.55;;;13.35;;
57969;SDS011;43777;42.656;23.264;2022-09-09T03:38:28;18.35;;;13.98;;
57969;SDS011;43777;42.656;23.264;2022-09-09T03:40:55;16.90;;;13.90;;
57969;SDS011;43777;42.656;23.264;2022-09-09T03:43:26;15.43;;;13.93;;
57969;SDS011;43777;42.656;23.264;2022-09-09T03:45:53;15.85;;;14.25;;
57969;SDS011;43777;42.656;23.264;2022-09-09T03:48:22;16.23;;;14.55;;
57969;SDS011;43777;42.656;23.264;2022-09-09T03:50:50;14.93;;;13.43;;
57969;SDS011;43777;42.656;23.264;2022-09-09T03:53:17;16.52;;;14.35;;
57969;SDS011;43777;42.656;23.264;2022-09-09T03:55:48;14.95;;;13.57;;
57969;SDS011;43777;42.656;23.264;2022-09-09T03:58:15;14.68;;;13.07;;
57969;SDS011;43777;42.656;23.264;2022-09-09T04:00:43;15.77;;;13.73;;
57969;SDS011;43777;42.656;23.264;2022-09-09T04:03:10;14.95;;;13.38;;
57969;SDS011;43777;42.656;23.264;2022-09-09T04:05:36;14.98;;;13.50;;
57969;SDS011;43777;42.656;23.264;2022-09-09T04:08:05;15.60;;;13.35;;
57969;SDS011;43777;42.656;23.264;2022-09-09T04:10:31;14.88;;;12.93;;
57969;SDS011;43777;42.656;23.264;2022-09-09T04:12:57;15.20;;;13.70;;
57969;SDS011;43777;42.656;23.264;2022-09-09T04:15:24;14.63;;;13.02;;
57969;SDS011;43777;42.656;23.264;2022-09-09T04:17:50;15.45;;;13.43;;
57969;SDS011;43777;42.656;23.264;2022-09-09T04:20:16;20.08;;;14.65;;
57969;SDS011;43777;42.656;23.264;2022-09-09T04:22:42;15.75;;;14.23;;
57969;SDS011;43777;42.656;23.264;2022-09-09T04:25:08;16.33;;;13.63;;
57969;SDS011;43777;42.656;23.264;2022-09-09T04:27:34;16.10;;;14.30;;
57969;SDS011;43777;42.656;23.264;2022-09-09T04:30:00;16.42;;;14.00;;
57969;SDS011;43777;42.656;23.264;2022-09-09T04:32:26;16.23;;;14.57;;
57969;SDS011;43777;42.656;23.264;2022-09-09T04:34:52;15.40;;;13.95;;
57969;SDS011;43777;42.656;23.264;2022-09-09T04:37:19;15.63;;;14.10;;
57969;SDS011;43777;42.656;23.264;2022-09-09T04:39:45;19.77;;;15.00;;
57969;SDS011;43777;42.656;23.264;2022-09-09T04:42:11;18.95;;;14.57;;
57969;SDS011;43777;42.656;23.264;2022-09-09T04:44:37;16.40;;;14.75;;
57969;SDS011;43777;42.656;23.264;2022-09-09T04:47:04;18.63;;;14.70;;
57969;SDS011;43777;42.656;23.264;2022-09-09T04:49:30;21.13;;;16.08;;
57969;SDS011;43777;42.656;23.264;2022-09-09T04:51:56;19.55;;;16.00;;
57969;SDS011;43777;42.656;23.264;2022-09-09T04:54:22;23.85;;;16.48;;
57969;SDS011;43777;42.656;23.264;2022-09-09T04:56:49;23.58;;;16.48;;
57969;SDS011;43777;42.656;23.264;2022-09-09T04:59:16;20.40;;;15.23;;
57969;SDS011;43777;42.656;23.264;2022-09-09T05:01:42;18.45;;;15.25;;
57969;SDS011;43777;42.656;23.264;2022-09-09T05:04:08;19.40;;;16.35;;
57969;SDS011;43777;42.656;23.264;2022-09-09T05:06:34;23.02;;;15.43;;
57969;SDS011;43777;42.656;23.264;2022-09-09T05:09:01;18.95;;;16.98;;
57969;SDS011;43777;42.656;23.264;2022-09-09T05:11:28;24.73;;;16.67;;
57969;SDS011;43777;42.656;23.264;2022-09-09T05:13:54;19.95;;;16.55;;
57969;SDS011;43777;42.656;23.264;2022-09-09T05:16:22;21.75;;;16.77;;
57969;SDS011;43777;42.656;23.264;2022-09-09T05:18:48;17.38;;;15.65;;
57969;SDS011;43777;42.656;23.264;2022-09-09T05:21:16;23.48;;;17.30;;
57969;SDS011;43777;42.656;23.264;2022-09-09T05:23:42;18.58;;;16.52;;
57969;SDS011;43777;42.656;23.264;2022-09-09T05:26:11;19.13;;;16.30;;
57969;SDS011;43777;42.656;23.264;2022-09-09T05:28:38;19.52;;;16.65;;
57969;SDS011;43777;42.656;23.264;2022-09-09T05:31:05;19.38;;;17.38;;
57969;SDS011;43777;42.656;23.264;2022-09-09T05:33:33;30.33;;;18.42;;
57969;SDS011;43777;42.656;23.264;2022-09-09T05:36:03;24.42;;;19.52;;
57969;SDS011;43777;42.656;23.264;2022-09-09T05:38:30;23.13;;;19.27;;
57969;SDS011;43777;42.656;23.264;2022-09-09T05:41:01;25.45;;;19.40;;
57969;SDS011;43777;42.656;23.264;2022-09-09T05:43:27;25.27;;;19.65;;
57969;SDS011;43777;42.656;23.264;2022-09-09T05:46:01;59.30;;;20.83;;
57969;SDS011;43777;42.656;23.264;2022-09-09T05:48:29;27.50;;;19.45;;
57969;SDS011;43777;42.656;23.264;2022-09-09T05:50:56;26.00;;;18.95;;
57969;SDS011;43777;42.656;23.264;2022-09-09T05:53:22;40.70;;;20.58;;
57969;SDS011;43777;42.656;23.264;2022-09-09T05:55:48;27.05;;;19.98;;
57969;SDS011;43777;42.656;23.264;2022-09-09T05:58:15;24.10;;;19.05;;
57969;SDS011;43777;42.656;23.264;2022-09-09T06:00:41;26.13;;;20.25;;
57969;SDS011;43777;42.656;23.264;2022-09-09T06:03:11;22.92;;;20.52;;
57969;SDS011;43777;42.656;23.264;2022-09-09T06:05:37;25.35;;;20.10;;
57969;SDS011;43777;42.656;23.264;2022-09-09T06:08:03;25.73;;;21.10;;
57969;SDS011;43777;42.656;23.264;2022-09-09T06:10:29;34.55;;;21.73;;
57969;SDS011;43777;42.656;23.264;2022-09-09T06:12:55;34.05;;;22.08;;
57969;SDS011;43777;42.656;23.264;2022-09-09T06:15:21;24.05;;;20.35;;
57969;SDS011;43777;42.656;23.264;2022-09-09T06:17:53;24.10;;;20.55;;
57969;SDS011;43777;42.656;23.264;2022-09-09T06:20:20;27.83;;;21.27;;
57969;SDS011;43777;42.656;23.264;2022-09-09T06:22:46;71.90;;;22.70;;
57969;SDS011;43777;42.656;23.264;2022-09-09T06:25:13;32.33;;;19.75;;
57969;SDS011;43777;42.656;23.264;2022-09-09T06:27:40;23.60;;;20.73;;
57969;SDS011;43777;42.656;23.264;2022-09-09T06:30:07;27.00;;;20.48;;
57969;SDS011;43777;42.656;23.264;2022-09-09T06:32:33;24.67;;;20.30;;
57969;SDS011;43777;42.656;23.264;2022-09-09T06:35:00;24.30;;;20.08;;
57969;SDS011;43777;42.656;23.264;2022-09-09T06:37:26;33.03;;;21.05;;
57969;SDS011;43777;42.656;23.264;2022-09-09T06:39:52;32.95;;;20.23;;
57969;SDS011;43777;42.656;23.264;2022-09-09T06:42:19;26.00;;;19.77;;
57969;SDS011;43777;42.656;23.264;2022-09-09T06:44:45;24.73;;;20.55;;
57969;SDS011;43777;42.656;23.264;2022-09-09T06:47:12;23.30;;;19.17;;
57969;SDS011;43777;42.656;23.264;2022-09-09T06:49:38;28.27;;;18.92;;
57969;SDS011;43777;42.656;23.264;2022-09-09T06:52:04;22.15;;;18.13;;
57969;SDS011;43777;42.656;23.264;2022-09-09T06:54:30;22.45;;;20.27;;
57969;SDS011;43777;42.656;23.264;2022-09-09T06:56:56;24.25;;;19.48;;
57969;SDS011;43777;42.656;23.264;2022-09-09T06:59:22;41.67;;;19.88;;
57969;SDS011;43777;42.656;23.264;2022-09-09T07:01:48;21.75;;;18.27;;
57969;SDS011;43777;42.656;23.264;2022-09-09T07:04:16;23.27;;;18.02;;
57969;SDS011;43777;42.656;23.264;2022-09-09T07:06:44;26.85;;;18.55;;
57969;SDS011;43777;42.656;23.264;2022-09-09T07:09:12;29.38;;;18.35;;
57969;SDS011;43777;42.656;23.264;2022-09-09T07:11:39;23.40;;;18.50;;
57969;SDS011;43777;42.656;23.264;2022-09-09T07:14:07;21.70;;;18.15;;
57969;SDS011;43777;42.656;23.264;2022-09-09T07:16:33;20.35;;;16.95;;
57969;SDS011;43777;42.656;23.264;2022-09-09T07:19:02;20.75;;;18.75;;
57969;SDS011;43777;42.656;23.264;2022-09-09T07:21:28;19.55;;;17.40;;
57969;SDS011;43777;42.656;23.264;2022-09-09T07:23:54;27.65;;;18.08;;
57969;SDS011;43777;42.656;23.264;2022-09-09T07:26:22;22.45;;;16.63;;
57969;SDS011;43777;42.656;23.264;2022-09-09T07:28:48;21.38;;;18.05;;
57969;SDS011;43777;42.656;23.264;2022-09-09T07:31:18;24.00;;;16.80;;
57969;SDS011;43777;42.656;23.264;2022-09-09T07:33:45;25.20;;;17.95;;
57969;SDS011;43777;42.656;23.264;2022-09-09T07:36:13;20.23;;;16.80;;
57969;SDS011;43777;42.656;23.264;2022-09-09T07:38:43;21.48;;;16.60;;
57969;SDS011;43777;42.656;23.264;2022-09-09T07:41:11;21.58;;;18.00;;
57969;SDS011;43777;42.656;23.264;2022-09-09T07:43:38;19.10;;;17.08;;
57969;SDS011;43777;42.656;23.264;2022-09-09T07:46:05;19.00;;;16.55;;
57969;SDS011;43777;42.656;23.264;2022-09-09T07:48:31;20.42;;;17.98;;
57969;SDS011;43777;42.656;23.264;2022-09-09T07:51:07;18.08;;;16.17;;
57969;SDS011;43777;42.656;23.264;2022-09-09T07:53:33;20.20;;;15.90;;
57969;SDS011;43777;42.656;23.264;2022-09-09T07:56:05;18.30;;;14.98;;
57969;SDS011;43777;42.656;23.264;2022-09-09T07:58:31;21.90;;;15.38;;
57969;SDS011;43777;42.656;23.264;2022-09-09T08:00:57;18.40;;;14.30;;
57969;SDS011;43777;42.656;23.264;2022-09-09T08:03:23;19.30;;;13.68;;
57969;SDS011;43777;42.656;23.264;2022-09-09T08:05:49;19.55;;;15.07;;
57969;SDS011;43777;42.656;23.264;2022-09-09T08:08:16;16.30;;;14.23;;
57969;SDS011;43777;42.656;23.264;2022-09-09T08:10:42;21.98;;;13.23;;
57969;SDS011;43777;42.656;23.264;2022-09-09T08:13:08;21.75;;;13.80;;
57969;SDS011;43777;42.656;23.264;2022-09-09T08:15:35;16.42;;;14.40;;
57969;SDS011;43777;42.656;23.264;2022-09-09T08:18:01;16.33;;;13.85;;
57969;SDS011;43777;42.656;23.264;2022-09-09T08:20:29;18.08;;;14.82;;
57969;SDS011;43777;42.656;23.264;2022-09-09T08:22:55;19.38;;;14.05;;
57969;SDS011;43777;42.656;23.264;2022-09-09T08:25:21;15.27;;;13.70;;
57969;SDS011;43777;42.656;23.264;2022-09-09T08:27:47;19.77;;;14.25;;
57969;SDS011;43777;42.656;23.264;2022-09-09T08:30:13;19.77;;;13.85;;
57969;SDS011;43777;42.656;23.264;2022-09-09T08:32:39;15.00;;;13.40;;
57969;SDS011;43777;42.656;23.264;2022-09-09T08:35:06;18.45;;;13.68;;
57969;SDS011;43777;42.656;23.264;2022-09-09T08:37:32;19.55;;;15.32;;
57969;SDS011;43777;42.656;23.264;2022-09-09T08:39:58;20.77;;;14.98;;
57969;SDS011;43777;42.656;23.264;2022-09-09T08:42:30;18.38;;;14.52;;
57969;SDS011;43777;42.656;23.264;2022-09-09T08:57:39;20.45;;;13.38;;
57969;SDS011;43777;42.656;23.264;2022-09-09T09:00:07;16.15;;;12.88;;
57969;SDS011;43777;42.656;23.264;2022-09-09T09:10:43;33.28;;;13.75;;
57969;SDS011;43777;42.656;23.264;2022-09-09T09:13:07;17.35;;;13.77;;
57969;SDS011;43777;42.656;23.264;2022-09-09T09:15:38;18.33;;;13.07;;
57969;SDS011;43777;42.656;23.264;2022-09-09T09:18:05;18.90;;;13.30;;
57969;SDS011;43777;42.656;23.264;2022-09-09T09:23:00;13.68;;;12.05;;
57969;SDS011;43777;42.656;23.264;2022-09-09T09:25:32;13.98;;;12.48;;
57969;SDS011;43777;42.656;23.264;2022-09-09T09:28:02;15.82;;;12.50;;
57969;SDS011;43777;42.656;23.264;2022-09-09T09:30:35;14.95;;;11.90;;
57969;SDS011;43777;42.656;23.264;2022-09-09T09:33:02;17.52;;;11.48;;
57969;SDS011;43777;42.656;23.264;2022-09-09T09:35:31;18.23;;;11.93;;
57969;SDS011;43777;42.656;23.264;2022-09-09T09:37:57;13.30;;;11.05;;
57969;SDS011;43777;42.656;23.264;2022-09-09T09:40:23;16.38;;;11.45;;
57969;SDS011;43777;42.656;23.264;2022-09-09T09:42:53;14.57;;;10.82;;
57969;SDS011;43777;42.656;23.264;2022-09-09T09:45:33;16.80;;;10.82;;
57969;SDS011;43777;42.656;23.264;2022-09-09T09:50:27;12.23;;;11.02;;
57969;SDS011;43777;42.656;23.264;2022-09-09T09:52:54;17.30;;;10.95;;
57969;SDS011;43777;42.656;23.264;2022-09-09T09:55:20;14.13;;;11.38;;
57969;SDS011;43777;42.656;23.264;2022-09-09T09:57:49;18.67;;;11.32;;
57969;SDS011;43777;42.656;23.264;2022-09-09T10:00:22;18.85;;;11.07;;
57969;SDS011;43777;42.656;23.264;2022-09-09T10:02:49;14.07;;;10.90;;
57969;SDS011;43777;42.656;23.264;2022-09-09T10:05:24;14.63;;;10.77;;
57969;SDS011;43777;42.656;23.264;2022-09-09T10:13:51;14.32;;;11.05;;
57969;SDS011;43777;42.656;23.264;2022-09-09T10:17:06;14.32;;;11.40;;
57969;SDS011;43777;42.656;23.264;2022-09-09T10:19:10;15.63;;;11.15;;
57969;SDS011;43777;42.656;23.264;2022-09-09T10:37:00;24.02;;;11.52;;
57969;SDS011;43777;42.656;23.264;2022-09-09T10:39:35;14.98;;;10.73;;
57969;SDS011;43777;42.656;23.264;2022-09-09T10:42:12;20.25;;;10.85;;
57969;SDS011;43777;42.656;23.264;2022-09-09T10:44:42;15.13;;;10.68;;
57969;SDS011;43777;42.656;23.264;2022-09-09T11:00:06;18.40;;;12.52;;
57969;SDS011;43777;42.656;23.264;2022-09-09T11:02:34;14.27;;;12.70;;
57969;SDS011;43777;42.656;23.264;2022-09-09T11:10:03;21.48;;;14.02;;
57969;SDS011;43777;42.656;23.264;2022-09-09T11:12:32;17.45;;;12.80;;
57969;SDS011;43777;42.656;23.264;2022-09-09T11:15:06;23.63;;;13.27;;
57969;SDS011;43777;42.656;23.264;2022-09-09T11:17:45;17.33;;;13.15;;
57969;SDS011;43777;42.656;23.264;2022-09-09T11:20:13;21.30;;;12.90;;
57969;SDS011;43777;42.656;23.264;2022-09-09T11:25:16;26.55;;;13.70;;
57969;SDS011;43777;42.656;23.264;2022-09-09T11:40:26;14.13;;;11.32;;
57969;SDS011;43777;42.656;23.264;2022-09-09T11:45:29;17.98;;;12.70;;
57969;SDS011;43777;42.656;23.264;2022-09-09T11:47:56;23.95;;;13.82;;
57969;SDS011;43777;42.656;23.264;2022-09-09T11:52:49;18.92;;;12.63;;
57969;SDS011;43777;42.656;23.264;2022-09-09T11:55:27;29.83;;;14.10;;
57969;SDS011;43777;42.656;23.264;2022-09-09T11:57:58;21.27;;;14.07;;
57969;SDS011;43777;42.656;23.264;2022-09-09T12:00:31;18.77;;;13.43;;
57969;SDS011;43777;42.656;23.264;2022-09-09T12:02:58;30.48;;;14.55;;
57969;SDS011;43777;42.656;23.264;2022-09-09T12:05:34;18.50;;;13.65;;
57969;SDS011;43777;42.656;23.264;2022-09-09T12:08:01;22.55;;;14.18;;
57969;SDS011;43777;42.656;23.264;2022-09-09T12:12:54;24.90;;;13.68;;
57969;SDS011;43777;42.656;23.264;2022-09-09T12:15:22;21.63;;;13.45;;
57969;SDS011;43777;42.656;23.264;2022-09-09T12:17:52;24.63;;;13.52;;
57969;SDS011;43777;42.656;23.264;2022-09-09T12:23:00;21.92;;;13.75;;
57969;SDS011;43777;42.656;23.264;2022-09-09T12:31:07;21.90;;;12.45;;
57969;SDS011;43777;42.656;23.264;2022-09-09T12:33:37;15.68;;;11.02;;
57969;SDS011;43777;42.656;23.264;2022-09-09T12:36:05;18.05;;;12.07;;
57969;SDS011;43777;42.656;23.264;2022-09-09T12:38:38;17.50;;;9.88;;
57969;SDS011;43777;42.656;23.264;2022-09-09T12:41:04;16.20;;;10.52;;
57969;SDS011;43777;42.656;23.264;2022-09-09T12:43:31;16.38;;;10.23;;
57969;SDS011;43777;42.656;23.264;2022-09-09T12:46:03;18.10;;;9.57;;
57969;SDS011;43777;42.656;23.264;2022-09-09T12:48:38;18.85;;;8.23;;
57969;SDS011;43777;42.656;23.264;2022-09-09T12:51:06;12.00;;;7.55;;
57969;SDS011;43777;42.656;23.264;2022-09-09T12:53:34;18.80;;;8.00;;
57969;SDS011;43777;42.656;23.264;2022-09-09T12:56:17;13.93;;;7.97;;
57969;SDS011;43777;42.656;23.264;2022-09-09T12:58:45;12.95;;;8.20;;
57969;SDS011;43777;42.656;23.264;2022-09-09T13:01:18;18.88;;;9.10;;
57969;SDS011;43777;42.656;23.264;2022-09-09T13:03:46;13.50;;;8.25;;
57969;SDS011;43777;42.656;23.264;2022-09-09T13:06:13;15.70;;;9.07;;
57969;SDS011;43777;42.656;23.264;2022-09-09T13:08:39;13.85;;;8.80;;
57969;SDS011;43777;42.656;23.264;2022-09-09T13:14:01;18.00;;;11.07;;
57969;SDS011;43777;42.656;23.264;2022-09-09T13:16:28;15.57;;;9.65;;
57969;SDS011;43777;42.656;23.264;2022-09-09T13:18:58;14.82;;;11.45;;
57969;SDS011;43777;42.656;23.264;2022-09-09T13:21:33;20.58;;;13.20;;
57969;SDS011;43777;42.656;23.264;2022-09-09T13:23:59;18.90;;;12.65;;
57969;SDS011;43777;42.656;23.264;2022-09-09T13:26:28;17.60;;;13.48;;
57969;SDS011;43777;42.656;23.264;2022-09-09T13:28:55;16.15;;;13.80;;
57969;SDS011;43777;42.656;23.264;2022-09-09T13:31:22;22.80;;;13.40;;
57969;SDS011;43777;42.656;23.264;2022-09-09T13:33:49;17.35;;;13.30;;
57969;SDS011;43777;42.656;23.264;2022-09-09T13:36:16;20.00;;;13.63;;
57969;SDS011;43777;42.656;23.264;2022-09-09T13:38:53;16.00;;;13.25;;
57969;SDS011;43777;42.656;23.264;2022-09-09T13:41:20;16.50;;;13.00;;
57969;SDS011;43777;42.656;23.264;2022-09-09T13:43:48;17.10;;;12.75;;
57969;SDS011;43777;42.656;23.264;2022-09-09T13:48:59;17.83;;;12.73;;
57969;SDS011;43777;42.656;23.264;2022-09-09T13:51:29;17.15;;;12.98;;
57969;SDS011;43777;42.656;23.264;2022-09-09T13:53:56;19.05;;;12.98;;
57969;SDS011;43777;42.656;23.264;2022-09-09T13:56:22;16.27;;;12.88;;
57969;SDS011;43777;42.656;23.264;2022-09-09T13:58:48;16.17;;;12.50;;
57969;SDS011;43777;42.656;23.264;2022-09-09T14:01:14;18.05;;;12.50;;
57969;SDS011;43777;42.656;23.264;2022-09-09T14:03:40;18.13;;;12.10;;
57969;SDS011;43777;42.656;23.264;2022-09-09T14:06:07;19.10;;;13.00;;
57969;SDS011;43777;42.656;23.264;2022-09-09T14:08:33;21.95;;;13.70;;
57969;SDS011;43777;42.656;23.264;2022-09-09T14:11:05;17.30;;;12.55;;
57969;SDS011;43777;42.656;23.264;2022-09-09T14:13:31;18.17;;;12.75;;
57969;SDS011;43777;42.656;23.264;2022-09-09T14:15:57;20.23;;;12.82;;
57969;SDS011;43777;42.656;23.264;2022-09-09T14:18:23;20.50;;;13.10;;
57969;SDS011;43777;42.656;23.264;2022-09-09T14:20:50;15.63;;;13.15;;
57969;SDS011;43777;42.656;23.264;2022-09-09T14:23:16;20.83;;;13.40;;
57969;SDS011;43777;42.656;23.264;2022-09-09T14:25:43;15.40;;;12.68;;
57969;SDS011;43777;42.656;23.264;2022-09-09T14:28:10;20.27;;;12.98;;
57969;SDS011;43777;42.656;23.264;2022-09-09T14:30:37;14.25;;;11.93;;
57969;SDS011;43777;42.656;23.264;2022-09-09T14:33:04;19.45;;;12.60;;
57969;SDS011;43777;42.656;23.264;2022-09-09T14:35:30;20.80;;;13.35;;
57969;SDS011;43777;42.656;23.264;2022-09-09T14:37:56;17.15;;;13.45;;
57969;SDS011;43777;42.656;23.264;2022-09-09T14:40:22;17.85;;;12.85;;
57969;SDS011;43777;42.656;23.264;2022-09-09T14:42:48;22.92;;;12.88;;
57969;SDS011;43777;42.656;23.264;2022-09-09T14:45:14;17.67;;;12.75;;
57969;SDS011;43777;42.656;23.264;2022-09-09T14:47:40;17.70;;;13.20;;
57969;SDS011;43777;42.656;23.264;2022-09-09T14:50:06;17.77;;;13.13;;
57969;SDS011;43777;42.656;23.264;2022-09-09T14:52:33;23.83;;;13.90;;
57969;SDS011;43777;42.656;23.264;2022-09-09T14:54:59;22.23;;;12.52;;
57969;SDS011;43777;42.656;23.264;2022-09-09T14:57:25;16.25;;;12.80;;
57969;SDS011;43777;42.656;23.264;2022-09-09T14:59:51;18.98;;;12.70;;
57969;SDS011;43777;42.656;23.264;2022-09-09T15:02:18;21.50;;;13.05;;
57969;SDS011;43777;42.656;23.264;2022-09-09T15:04:44;19.67;;;12.95;;
57969;SDS011;43777;42.656;23.264;2022-09-09T15:07:11;19.70;;;12.63;;
57969;SDS011;43777;42.656;23.264;2022-09-09T15:09:37;18.45;;;12.70;;
57969;SDS011;43777;42.656;23.264;2022-09-09T15:12:03;47.10;;;15.30;;
57969;SDS011;43777;42.656;23.264;2022-09-09T15:14:29;36.38;;;13.80;;
57969;SDS011;43777;42.656;23.264;2022-09-09T15:16:55;30.17;;;13.27;;
57969;SDS011;43777;42.656;23.264;2022-09-09T15:19:21;31.92;;;14.10;;
57969;SDS011;43777;42.656;23.264;2022-09-09T15:21:47;28.23;;;14.48;;
57969;SDS011;43777;42.656;23.264;2022-09-09T15:24:14;23.38;;;14.40;;
57969;SDS011;43777;42.656;23.264;2022-09-09T15:26:41;23.13;;;13.57;;
57969;SDS011;43777;42.656;23.264;2022-09-09T15:29:07;16.25;;;13.18;;
57969;SDS011;43777;42.656;23.264;2022-09-09T15:31:33;38.25;;;13.68;;
57969;SDS011;43777;42.656;23.264;2022-09-09T15:34:00;12.85;;;11.35;;
57969;SDS011;43777;42.656;23.264;2022-09-09T15:36:37;18.40;;;11.77;;
57969;SDS011;43777;42.656;23.264;2022-09-09T15:39:04;22.10;;;12.75;;
57969;SDS011;43777;42.656;23.264;2022-09-09T15:41:30;29.75;;;12.93;;
57969;SDS011;43777;42.656;23.264;2022-09-09T15:43:57;16.52;;;12.27;;
57969;SDS011;43777;42.656;23.264;2022-09-09T15:49:07;22.05;;;13.00;;
57969;SDS011;43777;42.656;23.264;2022-09-09T15:51:34;17.70;;;13.85;;
57969;SDS011;43777;42.656;23.264;2022-09-09T15:54:00;25.58;;;14.18;;
57969;SDS011;43777;42.656;23.264;2022-09-09T15:56:27;22.90;;;13.57;;
57969;SDS011;43777;42.656;23.264;2022-09-09T15:58:55;20.63;;;13.32;;
57969;SDS011;43777;42.656;23.264;2022-09-09T16:01:22;23.02;;;13.52;;
57969;SDS011;43777;42.656;23.264;2022-09-09T16:03:48;27.83;;;14.40;;
57969;SDS011;43777;42.656;23.264;2022-09-09T16:06:16;18.50;;;13.70;;
57969;SDS011;43777;42.656;23.264;2022-09-09T16:08:43;22.13;;;13.27;;
57969;SDS011;43777;42.656;23.264;2022-09-09T16:11:11;25.58;;;14.48;;
57969;SDS011;43777;42.656;23.264;2022-09-09T16:13:39;25.70;;;14.13;;
57969;SDS011;43777;42.656;23.264;2022-09-09T16:16:06;17.60;;;15.02;;
57969;SDS011;43777;42.656;23.264;2022-09-09T16:18:39;27.83;;;13.95;;
57969;SDS011;43777;42.656;23.264;2022-09-09T16:21:06;19.02;;;13.85;;
57969;SDS011;43777;42.656;23.264;2022-09-09T16:23:33;19.92;;;15.13;;
57969;SDS011;43777;42.656;23.264;2022-09-09T16:25:59;19.33;;;13.40;;
57969;SDS011;43777;42.656;23.264;2022-09-09T16:28:26;24.98;;;13.98;;
57969;SDS011;43777;42.656;23.264;2022-09-09T16:30:52;21.73;;;14.07;;
57969;SDS011;43777;42.656;23.264;2022-09-09T16:33:18;17.92;;;13.20;;
57969;SDS011;43777;42.656;23.264;2022-09-09T16:35:44;17.20;;;12.25;;
57969;SDS011;43777;42.656;23.264;2022-09-09T16:38:10;15.35;;;12.05;;
57969;SDS011;43777;42.656;23.264;2022-09-09T16:40:37;18.75;;;12.23;;
57969;SDS011;43777;42.656;23.264;2022-09-09T16:43:04;15.45;;;12.65;;